LGAVLGKV

Guest
Details From LGAV - Athens Intl Airport Elefterios Venizel
To LGKV - Kavala Megas Alexandros
Flight Number -
Tags None
Created
Modified
Stats Distance 208 nm / 385 km
Max Altitude 308 ft / 94 m
Waypoints 8
Social Downloads 1
Likes 0
Share VATSIM

Download

Looking for another format? Having issues loading an existing format? Contact us
Advertisement - Login to hide

Notes

None

Route

LGAV NEVRA AMISI KOROS LUPIS LMO AMALA LGKV

ID Type Via Altitude Latitude Longitude Leg Dist Tot Dist Heading (true) Name
O LGAV APT - 308 ft / 94 m 37.93670˚ 23.94450˚ - 0 nm - Athens Intl Airport Elefterios Venizel
NEVRA FIX - 0 ft / 0 m 38.16833˚ 24.56028˚ 32 nm 32 nm 64° / 65° -
AMISI FIX - 0 ft / 0 m 38.84667˚ 24.81833˚ 42 nm 74 nm 16° / 17° -
KOROS FIX - 0 ft / 0 m 39.09972˚ 24.91583˚ 15 nm 90 nm 17° / 17° -
LUPIS FIX - 0 ft / 0 m 39.21056˚ 24.95889˚ 6 nm 97 nm 17° / 17° -
LMO VOR - 35 ft / 11 m 39.91954˚ 25.23719˚ 44 nm 142 nm 17° / 17° LIMNOS VOR-DME
AMALA FIX - 0 ft / 0 m 40.56861˚ 24.83278˚ 43 nm 185 nm 335° / 334° -
O LGKV APT - 18 ft / 5 m 40.91389˚ 24.61972˚ 22 nm 208 nm 335° / 335° Kavala Megas Alexandros

Altitude Profile

Advertisement - Login to hide

Weather


0- 5 10 15 20 25 30 35+ Temperature / ° C

Clouds and Precipitation
Forecast for 2017-12-12 12:00 UTC. Updated 2 hours ago

Ground ~20,000 ft ~40,000 ft Winds

LGAV

Details ICAO LGAV (ATH)
Name Athens Intl Airport Elefterios Venizel
Region Greece
Timezone Europe/Athens (UTC+2.0)
Stats Elevation 308 ft / 94 m (AMSL)
Location 37.936357° 23.944470°
Runways 2
Magnetic Variation 4.483° E

METAR

LGAV 120820Z 22003KT 9999 FEW035 15/07 Q1024 NOSIG

Decode

TAF

TAF TAF LGAV 120500Z 1206/1306 24005KT 9999 FEW035

Decode

Departure Runways

ID Width Length Bearing (true) Bearing (mag) Surface Threshold Offset Overrun Length
03L 148 ft / 45 m 12,474 ft / 3,802 m 36.51° 32.03° Asphalt 984 ft / 300 m 393 ft / 120 m
03R 148 ft / 45 m 13,131 ft / 4,002 m 36.52° 32.04° Asphalt 984 ft / 300 m 393 ft / 120 m
21L 148 ft / 45 m 13,131 ft / 4,002 m 216.54° 212.06° Asphalt 984 ft / 300 m 393 ft / 120 m
21R 148 ft / 45 m 12,474 ft / 3,802 m 216.53° 212.05° Asphalt 984 ft / 300 m 393 ft / 120 m

LGKV

Details ICAO LGKV (KVA)
Name Kavala Megas Alexandros
Region Greece
Timezone Europe/Athens (UTC+2.0)
Stats Elevation 18 ft / 5 m (AMSL)
Location 40.914780° 24.618932°
Runways 2
Magnetic Variation 4.892° E

METAR

LGKV 120820Z 25004KT CAVOK 10/06 Q1021

Decode

TAF

Not found

Destination Runways

ID Width Length Bearing (true) Bearing (mag) Surface Threshold Offset Overrun Length
05L 100 ft / 30 m 9,833 ft / 2,997 m 55.25° 50.36° Asphalt 0 ft / 0 m 930 ft / 283 m
05R 150 ft / 46 m 9,833 ft / 2,997 m 55.25° 50.36° Asphalt 0 ft / 0 m 930 ft / 283 m
23L 150 ft / 46 m 9,833 ft / 2,997 m 235.27° 230.38° Asphalt 0 ft / 0 m 930 ft / 283 m
23R 100 ft / 30 m 9,833 ft / 2,997 m 235.27° 230.38° Asphalt 0 ft / 0 m 930 ft / 283 m

Popular Alternatives